Time;durP1;ratioP1;P1;durP2;ratioP2;P2;SDS_P1;SDS_P2;PMS_P1;PMS_P2;Temp;Humidity;BMP_temperature;BMP_pressure;BME280_temperature;BME280_humidity;BME280_pressure;Samples;Min_cycle;Max_cycle;Signal;HPM_P1;HPM_P2
2022/06/30 00:01:39;;;;;;;10.38;5.22;;;;;;;;;;5015197;28;20042;-87
2022/06/30 00:04:05;;;;;;;7.28;4.45;;;;;;;;;;5014310;28;20041;-86
2022/06/30 00:06:31;;;;;;;6.25;5.03;;;;;;;;;;5018763;28;20030;-85
2022/06/30 00:08:57;;;;;;;9.32;5.05;;;;;;;;;;5015782;28;20029;-85
2022/06/30 00:11:24;;;;;;;9.38;4.88;;;;;;;;;;5019436;28;20029;-85
2022/06/30 00:13:50;;;;;;;8.73;4.80;;;;;;;;;;5019446;28;20025;-86
2022/06/30 00:16:16;;;;;;;7.63;4.97;;;;;;;;;;5027578;28;20029;-85
2022/06/30 00:18:42;;;;;;;8.68;4.60;;;;;;;;;;5015879;28;20127;-85
2022/06/30 00:21:09;;;;;;;6.57;5.07;;;;;;;;;;5038230;28;20025;-86
2022/06/30 00:23:35;;;;;;;6.85;4.55;;;;;;;;;;5033092;28;20209;-86
2022/06/30 00:26:01;;;;;;;7.40;5.13;;;;;;;;;;5020518;28;20028;-85
2022/06/30 00:28:27;;;;;;;5.22;4.57;;;;;;;;;;5016143;28;20053;-85
2022/06/30 00:30:53;;;;;;;8.38;5.20;;;;;;;;;;5018811;28;20493;-85
2022/06/30 00:33:19;;;;;;;9.23;4.95;;;;;;;;;;5017681;28;20032;-85
2022/06/30 00:35:46;;;;;;;8.18;5.63;;;;;;;;;;5018944;28;20040;-85
2022/06/30 00:38:12;;;;;;;8.05;4.78;;;;;;;;;;5014124;28;20029;-86
2022/06/30 00:40:42;;;;;;;7.50;5.60;;;;;;;;;;5017110;28;20041;-87
2022/06/30 00:43:08;;;;;;;6.82;4.95;;;;;;;;;;5032234;28;20087;-86
2022/06/30 00:45:40;;;;;;;5.60;5.00;;;;;;;;;;5016526;28;20480;-85
2022/06/30 00:48:06;;;;;;;7.25;4.63;;;;;;;;;;5017008;28;20666;-85
2022/06/30 00:50:32;;;;;;;9.00;4.97;;;;;;;;;;5013441;28;20032;-86
2022/06/30 00:53:01;;;;;;;8.75;4.95;;;;;;;;;;5035422;28;20033;-87
2022/06/30 00:55:27;;;;;;;7.95;4.65;;;;;;;;;;5018283;28;20487;-86
2022/06/30 00:57:55;;;;;;;5.13;4.25;;;;;;;;;;5014611;28;20025;-85
2022/06/30 01:00:21;;;;;;;5.15;4.53;;;;;;;;;;5010983;28;20606;-85
2022/06/30 01:02:48;;;;;;;6.57;4.40;;;;;;;;;;5015803;28;20029;-85
2022/06/30 01:05:14;;;;;;;7.20;5.10;;;;;;;;;;5012355;28;20516;-85
2022/06/30 01:07:40;;;;;;;8.98;4.97;;;;;;;;;;5017600;28;20503;-85
2022/06/30 01:12:51;;;;;;;13.82;5.20;;;;;;;;;;5052574;28;20395;-86
2022/06/30 01:15:18;;;;;;;8.07;4.90;;;;;;;;;;5055346;28;20522;-85
2022/06/30 01:17:45;;;;;;;9.15;5.32;;;;;;;;;;5040736;28;20035;-86
2022/06/30 01:20:11;;;;;;;5.50;4.32;;;;;;;;;;5039038;28;20575;-86
2022/06/30 01:22:37;;;;;;;9.27;4.70;;;;;;;;;;5034640;28;20024;-85
2022/06/30 01:25:04;;;;;;;9.65;5.38;;;;;;;;;;5035911;28;20028;-87
2022/06/30 01:27:30;;;;;;;6.35;4.95;;;;;;;;;;5051256;28;20017;-87
2022/06/30 01:29:58;;;;;;;10.38;5.07;;;;;;;;;;5029448;28;21203;-86
2022/06/30 01:32:24;;;;;;;11.48;4.50;;;;;;;;;;5030791;28;20031;-86
2022/06/30 01:34:50;;;;;;;5.05;4.18;;;;;;;;;;5033922;28;20033;-86
2022/06/30 01:37:16;;;;;;;6.28;4.22;;;;;;;;;;5030919;28;20037;-86
2022/06/30 01:39:42;;;;;;;5.97;4.60;;;;;;;;;;5031785;28;20514;-85
2022/06/30 01:42:08;;;;;;;5.72;3.92;;;;;;;;;;5031480;28;20106;-86
2022/06/30 01:44:34;;;;;;;5.28;3.53;;;;;;;;;;5033690;28;20056;-87
2022/06/30 01:47:00;;;;;;;7.10;3.88;;;;;;;;;;5030613;28;20040;-86
2022/06/30 01:49:26;;;;;;;10.23;4.30;;;;;;;;;;5034551;28;20048;-86
2022/06/30 01:51:52;;;;;;;6.55;4.43;;;;;;;;;;5031072;28;20028;-85
2022/06/30 01:54:18;;;;;;;8.40;3.63;;;;;;;;;;5034291;28;20092;-85
2022/06/30 01:56:44;;;;;;;16.67;4.03;;;;;;;;;;5028059;28;20037;-86
2022/06/30 01:59:10;;;;;;;6.22;4.60;;;;;;;;;;5033326;28;20685;-85
2022/06/30 02:01:36;;;;;;;4.40;3.85;;;;;;;;;;5027071;28;20040;-85
2022/06/30 02:06:47;;;;;;;5.32;4.05;;;;;;;;;;5032876;28;20044;-85
2022/06/30 02:09:13;;;;;;;6.28;4.10;;;;;;;;;;5031749;28;20476;-85
2022/06/30 02:11:40;;;;;;;4.28;3.63;;;;;;;;;;5031527;28;20112;-85
2022/06/30 02:14:05;;;;;;;4.97;3.50;;;;;;;;;;5033263;28;20091;-85
2022/06/30 02:16:32;;;;;;;7.68;3.72;;;;;;;;;;5031361;28;20025;-85
2022/06/30 02:18:58;;;;;;;8.32;4.15;;;;;;;;;;5027263;28;20029;-84
2022/06/30 02:21:24;;;;;;;4.78;3.75;;;;;;;;;;5031034;28;20029;-85
2022/06/30 02:23:56;;;;;;;6.32;3.65;;;;;;;;;;5029142;28;20029;-86
2022/06/30 02:26:22;;;;;;;5.88;3.40;;;;;;;;;;5032879;28;20039;-86
2022/06/30 02:28:48;;;;;;;6.38;3.90;;;;;;;;;;5031280;28;20045;-85
2022/06/30 02:31:14;;;;;;;6.22;4.38;;;;;;;;;;5031154;28;20040;-86
2022/06/30 02:33:40;;;;;;;6.38;4.60;;;;;;;;;;5034040;28;20059;-85
2022/06/30 02:36:07;;;;;;;6.47;3.97;;;;;;;;;;5028984;28;20473;-85
2022/06/30 02:38:33;;;;;;;6.93;4.03;;;;;;;;;;5029857;28;20029;-85
2022/06/30 02:40:59;;;;;;;9.77;3.88;;;;;;;;;;5036799;28;20037;-85
2022/06/30 02:43:25;;;;;;;6.68;3.70;;;;;;;;;;5030331;28;20049;-85
2022/06/30 02:45:51;;;;;;;4.80;3.92;;;;;;;;;;5031169;28;20380;-86
2022/06/30 02:48:18;;;;;;;4.45;3.55;;;;;;;;;;5035645;28;20691;-85
2022/06/30 02:50:44;;;;;;;5.80;4.47;;;;;;;;;;5031626;28;20033;-85
2022/06/30 02:53:11;;;;;;;7.15;4.20;;;;;;;;;;5028531;28;20080;-85
2022/06/30 02:55:37;;;;;;;6.10;4.68;;;;;;;;;;5033477;28;20022;-85
2022/06/30 02:58:06;;;;;;;10.95;4.47;;;;;;;;;;5029964;28;20042;-85
2022/06/30 03:00:32;;;;;;;7.85;4.28;;;;;;;;;;5029176;28;20041;-85
2022/06/30 03:02:58;;;;;;;8.40;4.60;;;;;;;;;;5033688;28;20567;-85
2022/06/30 03:05:24;;;;;;;4.90;4.28;;;;;;;;;;5034104;28;20030;-87
2022/06/30 03:07:51;;;;;;;11.32;4.40;;;;;;;;;;5029242;28;20611;-85
2022/06/30 03:10:23;;;;;;;4.70;4.15;;;;;;;;;;5027995;28;20078;-85
2022/06/30 03:12:49;;;;;;;7.35;4.50;;;;;;;;;;5031334;28;20500;-85
2022/06/30 03:15:15;;;;;;;6.03;5.05;;;;;;;;;;5033164;28;20063;-86
2022/06/30 03:17:42;;;;;;;9.75;4.93;;;;;;;;;;5029231;28;20033;-85
2022/06/30 03:20:08;;;;;;;7.63;5.20;;;;;;;;;;5031334;28;20507;-85
2022/06/30 03:22:34;;;;;;;9.02;5.55;;;;;;;;;;5032040;28;20032;-86
2022/06/30 03:25:00;;;;;;;8.52;5.47;;;;;;;;;;5032031;28;20029;-86
2022/06/30 03:27:26;;;;;;;12.35;5.97;;;;;;;;;;5032303;28;20072;-85
2022/06/30 03:29:52;;;;;;;10.02;6.32;;;;;;;;;;5014056;28;20128;-85
2022/06/30 03:32:18;;;;;;;7.00;5.63;;;;;;;;;;4998132;28;20088;-85
2022/06/30 03:34:44;;;;;;;7.78;5.80;;;;;;;;;;4998042;28;20386;-86
2022/06/30 03:37:10;;;;;;;9.98;6.03;;;;;;;;;;5001532;28;20473;-87
2022/06/30 03:39:36;;;;;;;11.18;7.15;;;;;;;;;;5006470;28;20040;-85
2022/06/30 03:42:02;;;;;;;9.98;5.72;;;;;;;;;;4996718;28;20085;-85
2022/06/30 03:44:28;;;;;;;7.60;5.70;;;;;;;;;;4996669;28;20045;-85
2022/06/30 03:46:55;;;;;;;8.30;6.05;;;;;;;;;;5003630;28;20026;-86
2022/06/30 03:49:21;;;;;;;11.02;5.85;;;;;;;;;;5006640;28;20030;-85
2022/06/30 03:51:47;;;;;;;6.90;5.05;;;;;;;;;;4996677;28;20085;-86
2022/06/30 03:54:13;;;;;;;10.82;5.85;;;;;;;;;;4996528;28;20025;-85
2022/06/30 03:56:39;;;;;;;9.60;5.13;;;;;;;;;;5013748;28;20104;-85
2022/06/30 03:59:05;;;;;;;7.70;5.70;;;;;;;;;;5000210;28;20033;-85
2022/06/30 04:01:31;;;;;;;13.00;6.18;;;;;;;;;;4997555;28;20807;-86
2022/06/30 04:03:57;;;;;;;7.22;5.78;;;;;;;;;;4994431;28;20037;-86
2022/06/30 04:06:23;;;;;;;8.85;5.95;;;;;;;;;;4995954;28;20498;-86
2022/06/30 04:08:49;;;;;;;6.55;5.15;;;;;;;;;;4996644;28;20048;-85
2022/06/30 04:11:15;;;;;;;7.68;5.60;;;;;;;;;;4998166;28;20512;-87
2022/06/30 04:13:41;;;;;;;8.30;6.07;;;;;;;;;;4999752;28;20100;-85
2022/06/30 04:16:07;;;;;;;10.98;6.03;;;;;;;;;;5000351;28;20033;-86
2022/06/30 04:18:33;;;;;;;10.25;5.88;;;;;;;;;;5001626;28;20073;-86
2022/06/30 04:20:59;;;;;;;10.43;5.43;;;;;;;;;;4993156;28;20140;-86
2022/06/30 04:23:25;;;;;;;8.57;5.75;;;;;;;;;;4992116;28;20156;-86
2022/06/30 04:25:51;;;;;;;6.63;5.25;;;;;;;;;;5015794;28;20140;-87
2022/06/30 04:28:17;;;;;;;6.10;4.97;;;;;;;;;;5001843;28;20041;-85
2022/06/30 04:33:27;;;;;;;8.93;4.88;;;;;;;;;;5033292;28;20714;-85
2022/06/30 04:35:53;;;;;;;8.63;5.95;;;;;;;;;;5018489;28;20100;-86
2022/06/30 04:38:19;;;;;;;9.60;5.55;;;;;;;;;;5017821;28;20124;-86
2022/06/30 04:43:30;;;;;;;12.10;5.55;;;;;;;;;;5029928;28;20048;-86
2022/06/30 04:45:56;;;;;;;11.20;5.57;;;;;;;;;;5013543;28;20033;-85
2022/06/30 04:48:22;;;;;;;9.30;4.93;;;;;;;;;;5016171;28;20078;-86
2022/06/30 04:50:48;;;;;;;10.82;4.80;;;;;;;;;;5017436;28;20030;-85
2022/06/30 04:53:14;;;;;;;10.52;4.93;;;;;;;;;;5020462;28;20035;-86
2022/06/30 04:55:40;;;;;;;7.78;5.63;;;;;;;;;;5013809;28;20034;-85
2022/06/30 04:58:07;;;;;;;11.38;5.43;;;;;;;;;;5032072;28;20017;-85
2022/06/30 05:00:33;;;;;;;8.20;4.95;;;;;;;;;;5037178;28;20086;-85
2022/06/30 05:02:59;;;;;;;8.50;5.05;;;;;;;;;;5034267;28;20041;-88
2022/06/30 05:05:26;;;;;;;9.07;5.05;;;;;;;;;;5013802;28;20595;-85
2022/06/30 05:07:52;;;;;;;8.07;4.78;;;;;;;;;;5017389;28;20040;-85
2022/06/30 05:10:18;;;;;;;8.65;4.10;;;;;;;;;;5016734;28;20310;-85
2022/06/30 05:12:44;;;;;;;8.82;4.55;;;;;;;;;;5016153;28;20661;-86
2022/06/30 05:15:10;;;;;;;9.77;5.00;;;;;;;;;;5018874;28;20136;-85
2022/06/30 05:17:36;;;;;;;6.95;4.32;;;;;;;;;;5013236;28;20109;-86
2022/06/30 05:20:03;;;;;;;11.52;4.43;;;;;;;;;;5014959;28;20468;-85
2022/06/30 05:22:29;;;;;;;8.77;4.88;;;;;;;;;;5013898;28;20103;-86
2022/06/30 05:27:39;;;;;;;15.75;7.78;;;;;;;;;;5033250;28;20051;-86
2022/06/30 05:30:05;;;;;;;23.85;11.00;;;;;;;;;;5013231;28;20548;-85
2022/06/30 05:32:31;;;;;;;20.13;12.30;;;;;;;;;;4998520;28;20344;-85
2022/06/30 05:34:57;;;;;;;30.92;17.00;;;;;;;;;;4996240;28;20113;-85
2022/06/30 05:37:23;;;;;;;40.30;19.70;;;;;;;;;;5017684;28;20493;-86
2022/06/30 05:39:49;;;;;;;55.72;29.70;;;;;;;;;;5000063;28;20144;-88
2022/06/30 05:42:16;;;;;;;61.97;33.70;;;;;;;;;;5015599;28;20048;-87
2022/06/30 05:44:42;;;;;;;66.65;35.28;;;;;;;;;;5006341;28;20763;-87
2022/06/30 05:47:08;;;;;;;64.25;32.38;;;;;;;;;;5003359;28;20045;-87
2022/06/30 05:49:34;;;;;;;63.25;30.95;;;;;;;;;;5009869;28;20077;-87
2022/06/30 05:52:00;;;;;;;56.63;30.40;;;;;;;;;;4997540;28;20474;-87
2022/06/30 05:54:26;;;;;;;44.90;25.15;;;;;;;;;;5001130;28;20022;-87
2022/06/30 05:56:52;;;;;;;32.97;18.55;;;;;;;;;;5012936;28;20045;-88
2022/06/30 05:59:18;;;;;;;23.25;13.95;;;;;;;;;;5005809;28;20681;-87
2022/06/30 06:01:44;;;;;;;15.07;10.48;;;;;;;;;;4994961;28;20577;-87
2022/06/30 06:04:10;;;;;;;16.80;9.52;;;;;;;;;;4998271;28;20049;-87
2022/06/30 06:06:36;;;;;;;12.40;8.65;;;;;;;;;;4999924;28;20037;-87
2022/06/30 06:09:02;;;;;;;11.57;7.30;;;;;;;;;;4996541;28;20571;-88
2022/06/30 06:11:32;;;;;;;10.30;7.10;;;;;;;;;;5001693;28;20030;-87
2022/06/30 06:13:58;;;;;;;8.90;6.45;;;;;;;;;;5006716;28;20025;-87
2022/06/30 06:16:24;;;;;;;8.75;6.35;;;;;;;;;;5009626;28;20025;-88
2022/06/30 06:18:51;;;;;;;11.55;6.30;;;;;;;;;;4992547;28;20048;-87
2022/06/30 06:21:17;;;;;;;11.80;6.03;;;;;;;;;;5002068;28;20401;-87
2022/06/30 06:23:44;;;;;;;7.45;6.13;;;;;;;;;;4999754;28;20691;-87
2022/06/30 06:26:10;;;;;;;11.30;5.63;;;;;;;;;;4998998;28;20041;-86
2022/06/30 06:31:20;;;;;;;7.00;6.00;;;;;;;;;;5031446;28;20088;-87
2022/06/30 06:33:48;;;;;;;7.05;6.15;;;;;;;;;;5012610;28;20041;-86
2022/06/30 06:36:14;;;;;;;12.60;6.38;;;;;;;;;;5015251;28;21063;-86
2022/06/30 06:38:40;;;;;;;10.18;5.78;;;;;;;;;;5016662;28;20040;-86
2022/06/30 06:41:08;;;;;;;18.95;7.00;;;;;;;;;;5013800;28;20091;-86
2022/06/30 06:43:34;;;;;;;13.48;6.03;;;;;;;;;;5013039;28;20053;-86
2022/06/30 06:46:00;;;;;;;11.82;5.38;;;;;;;;;;5030171;28;20040;-86
2022/06/30 06:48:26;;;;;;;9.55;5.93;;;;;;;;;;5007469;28;20041;-86
2022/06/30 06:50:52;;;;;;;9.00;5.93;;;;;;;;;;5017105;28;20044;-86
2022/06/30 06:53:18;;;;;;;8.75;6.53;;;;;;;;;;5011679;28;20053;-86
2022/06/30 06:55:45;;;;;;;10.90;6.63;;;;;;;;;;5010211;28;20025;-85
2022/06/30 06:58:11;;;;;;;11.52;6.72;;;;;;;;;;5012861;28;20068;-85
2022/06/30 07:00:37;;;;;;;12.75;6.47;;;;;;;;;;5012119;28;20131;-85
2022/06/30 07:03:03;;;;;;;12.50;7.45;;;;;;;;;;5027757;28;20029;-85
2022/06/30 07:05:29;;;;;;;13.13;6.57;;;;;;;;;;5013768;28;20080;-86
2022/06/30 07:07:59;;;;;;;9.57;6.57;;;;;;;;;;5030639;28;20080;-86
2022/06/30 07:10:26;;;;;;;11.60;6.68;;;;;;;;;;5021012;28;20532;-85
2022/06/30 07:12:52;;;;;;;12.50;6.10;;;;;;;;;;5019804;28;20465;-86
2022/06/30 07:15:20;;;;;;;9.77;5.68;;;;;;;;;;5014841;28;20477;-85
2022/06/30 07:17:46;;;;;;;8.88;4.90;;;;;;;;;;5011242;28;20539;-85
2022/06/30 07:20:12;;;;;;;8.05;5.10;;;;;;;;;;5012370;28;20044;-86
2022/06/30 07:22:38;;;;;;;6.82;4.78;;;;;;;;;;5016131;28;20036;-85
2022/06/30 07:25:05;;;;;;;7.20;4.20;;;;;;;;;;5015752;28;20412;-86
2022/06/30 07:27:31;;;;;;;5.90;4.93;;;;;;;;;;5016708;28;20069;-85
2022/06/30 07:29:57;;;;;;;6.00;4.70;;;;;;;;;;5031879;28;20110;-85
2022/06/30 07:32:23;;;;;;;7.88;4.55;;;;;;;;;;5012074;28;20017;-85
2022/06/30 07:34:56;;;;;;;11.60;5.43;;;;;;;;;;5015961;28;20028;-85
2022/06/30 07:37:22;;;;;;;10.82;5.25;;;;;;;;;;5036270;28;20270;-85
2022/06/30 07:39:48;;;;;;;11.13;5.28;;;;;;;;;;5016342;28;21029;-85
2022/06/30 07:42:14;;;;;;;10.45;5.18;;;;;;;;;;5030684;28;20086;-86
2022/06/30 07:44:43;;;;;;;8.20;4.38;;;;;;;;;;5013030;28;20095;-86
2022/06/30 07:47:10;;;;;;;7.45;4.72;;;;;;;;;;5014440;28;20025;-87
2022/06/30 07:49:36;;;;;;;6.28;4.65;;;;;;;;;;5018625;28;20207;-86
2022/06/30 07:52:02;;;;;;;9.48;5.35;;;;;;;;;;5014599;28;20496;-85
2022/06/30 07:54:28;;;;;;;6.03;4.72;;;;;;;;;;5018825;28;20090;-87
2022/06/30 07:56:54;;;;;;;10.45;5.82;;;;;;;;;;5012723;28;20063;-86
2022/06/30 07:59:20;;;;;;;5.30;4.32;;;;;;;;;;5014189;28;20034;-86
2022/06/30 08:01:46;;;;;;;8.25;4.90;;;;;;;;;;5018407;28;20136;-85
2022/06/30 08:04:12;;;;;;;10.63;5.53;;;;;;;;;;5013502;28;20550;-86
2022/06/30 08:06:39;;;;;;;7.38;5.00;;;;;;;;;;5017035;28;20064;-85
2022/06/30 08:09:05;;;;;;;12.68;6.15;;;;;;;;;;5020020;28;20123;-86
2022/06/30 08:11:31;;;;;;;13.38;5.53;;;;;;;;;;5036332;28;20174;-85
2022/06/30 08:13:58;;;;;;;8.43;6.15;;;;;;;;;;5017879;28;20509;-85
2022/06/30 08:16:24;;;;;;;9.32;5.40;;;;;;;;;;5013423;28;20297;-85
2022/06/30 08:18:50;;;;;;;11.80;6.00;;;;;;;;;;5032795;28;20057;-86
2022/06/30 08:21:16;;;;;;;11.38;5.78;;;;;;;;;;5013065;28;20865;-86
2022/06/30 08:23:49;;;;;;;10.43;5.68;;;;;;;;;;5026760;28;20286;-86
2022/06/30 08:26:15;;;;;;;14.25;6.05;;;;;;;;;;5034794;28;20044;-86
2022/06/30 08:28:41;;;;;;;8.07;5.70;;;;;;;;;;5017367;28;20037;-86
2022/06/30 08:31:07;;;;;;;9.18;5.68;;;;;;;;;;5023331;28;20035;-86
2022/06/30 08:33:33;;;;;;;15.95;5.50;;;;;;;;;;5016703;28;20725;-87
2022/06/30 08:35:59;;;;;;;8.70;6.00;;;;;;;;;;5034387;28;20108;-86
2022/06/30 08:38:25;;;;;;;6.88;5.85;;;;;;;;;;5013283;28;20127;-87
2022/06/30 08:43:36;;;;;;;10.23;6.57;;;;;;;;;;5036810;28;20092;-87
2022/06/30 08:46:03;;;;;;;8.27;5.65;;;;;;;;;;5019318;28;20072;-87
2022/06/30 08:48:29;;;;;;;7.47;5.32;;;;;;;;;;5023092;28;20484;-86
2022/06/30 08:50:58;;;;;;;7.70;5.70;;;;;;;;;;5014671;28;20685;-86
2022/06/30 08:53:25;;;;;;;7.15;6.35;;;;;;;;;;5018446;28;20569;-86
2022/06/30 08:55:51;;;;;;;8.90;6.13;;;;;;;;;;5021606;28;20436;-86
2022/06/30 08:58:19;;;;;;;7.15;5.43;;;;;;;;;;5017613;28;20053;-86
2022/06/30 09:00:45;;;;;;;12.52;6.72;;;;;;;;;;5023256;28;20139;-85
2022/06/30 09:03:11;;;;;;;12.38;6.57;;;;;;;;;;5014726;28;20030;-86
2022/06/30 09:05:38;;;;;;;12.38;6.70;;;;;;;;;;5015440;28;20033;-86
2022/06/30 09:08:04;;;;;;;8.90;6.40;;;;;;;;;;5022948;28;20463;-87
2022/06/30 09:10:30;;;;;;;9.77;6.63;;;;;;;;;;5018412;28;20084;-87
2022/06/30 09:12:58;;;;;;;10.05;5.43;;;;;;;;;;5018933;28;20026;-87
2022/06/30 09:15:24;;;;;;;12.38;6.50;;;;;;;;;;5037379;28;20048;-87
2022/06/30 09:17:50;;;;;;;9.00;6.88;;;;;;;;;;5017104;28;20437;-88
2022/06/30 09:20:16;;;;;;;9.13;6.55;;;;;;;;;;5016423;28;20556;-88
2022/06/30 09:22:43;;;;;;;7.22;6.22;;;;;;;;;;5036854;28;20037;-87
2022/06/30 09:25:10;;;;;;;7.80;6.28;;;;;;;;;;5022213;28;20037;-87
2022/06/30 09:27:38;;;;;;;9.40;7.50;;;;;;;;;;5016378;28;20059;-87
2022/06/30 09:30:09;;;;;;;14.85;7.28;;;;;;;;;;5016096;28;20506;-87
2022/06/30 09:32:54;;;;;;;11.55;6.45;;;;;;;;;;5028078;28;20033;-88
2022/06/30 09:35:21;;;;;;;13.47;6.97;;;;;;;;;;5014161;28;20026;-87
2022/06/30 09:37:57;;;;;;;13.65;7.10;;;;;;;;;;5021636;28;20714;-87
2022/06/30 09:40:28;;;;;;;8.65;6.82;;;;;;;;;;5013891;28;20090;-87
2022/06/30 09:42:54;;;;;;;7.78;6.20;;;;;;;;;;5028573;28;20040;-87
2022/06/30 09:45:33;;;;;;;8.45;5.70;;;;;;;;;;5019109;28;20037;-87
2022/06/30 09:47:59;;;;;;;14.02;6.47;;;;;;;;;;5013431;28;20048;-87
2022/06/30 09:50:25;;;;;;;8.73;6.22;;;;;;;;;;5009252;28;20017;-87
2022/06/30 09:53:10;;;;;;;16.70;7.78;;;;;;;;;;5014295;28;20106;-88
2022/06/30 09:55:42;;;;;;;11.40;7.90;;;;;;;;;;5018138;28;20022;-86
2022/06/30 09:58:08;;;;;;;8.38;5.78;;;;;;;;;;5011627;28;20088;-87
2022/06/30 10:00:45;;;;;;;11.98;7.60;;;;;;;;;;5012696;28;20037;-88
2022/06/30 10:03:11;;;;;;;9.52;6.45;;;;;;;;;;5028613;28;20055;-87
2022/06/30 10:05:43;;;;;;;9.75;8.40;;;;;;;;;;5029651;28;20504;-87
2022/06/30 10:08:09;;;;;;;10.30;6.88;;;;;;;;;;5011381;28;20030;-88
2022/06/30 10:10:35;;;;;;;13.05;7.22;;;;;;;;;;5012057;28;20060;-88
2022/06/30 10:13:02;;;;;;;8.73;6.80;;;;;;;;;;5030291;28;20038;-87
2022/06/30 10:15:28;;;;;;;14.40;9.27;;;;;;;;;;5033114;28;20051;-88
2022/06/30 10:17:55;;;;;;;11.13;7.32;;;;;;;;;;5014025;28;20029;-88
2022/06/30 10:20:21;;;;;;;11.48;8.35;;;;;;;;;;5014608;28;20092;-88
2022/06/30 10:22:48;;;;;;;8.75;7.38;;;;;;;;;;5011182;28;20488;-88
2022/06/30 10:25:14;;;;;;;9.57;8.38;;;;;;;;;;5013480;28;22719;-88
2022/06/30 10:27:40;;;;;;;11.90;7.57;;;;;;;;;;5012783;28;20028;-88
2022/06/30 10:30:09;;;;;;;12.45;6.70;;;;;;;;;;5015828;28;20172;-88
2022/06/30 10:32:47;;;;;;;8.77;6.82;;;;;;;;;;5013246;28;20021;-88
2022/06/30 10:35:19;;;;;;;16.13;6.38;;;;;;;;;;5030429;28;20065;-89
2022/06/30 10:37:54;;;;;;;11.32;7.22;;;;;;;;;;5034662;28;20550;-88
2022/06/30 10:40:34;;;;;;;8.32;7.22;;;;;;;;;;5030986;28;20128;-87
2022/06/30 10:43:01;;;;;;;12.27;8.35;;;;;;;;;;5034193;28;20193;-88
2022/06/30 10:45:27;;;;;;;10.73;8.05;;;;;;;;;;5041141;28;20411;-88
2022/06/30 10:47:56;;;;;;;9.60;8.35;;;;;;;;;;5055435;28;20704;-88
2022/06/30 10:50:32;;;;;;;12.82;8.77;;;;;;;;;;5040390;28;20033;-89
2022/06/30 10:52:58;;;;;;;10.77;7.43;;;;;;;;;;5040458;28;20025;-89
2022/06/30 10:55:24;;;;;;;10.32;7.38;;;;;;;;;;5037581;28;20071;-89
2022/06/30 10:58:01;;;;;;;8.48;6.93;;;;;;;;;;5042275;28;20032;-88
2022/06/30 11:00:50;;;;;;;12.50;8.32;;;;;;;;;;5037831;28;20028;-89
2022/06/30 11:03:34;;;;;;;10.05;8.38;;;;;;;;;;4996889;28;20045;-88
2022/06/30 11:06:06;;;;;;;11.95;8.30;;;;;;;;;;5043113;28;20120;-88
2022/06/30 11:08:47;;;;;;;11.70;8.52;;;;;;;;;;5044423;28;20036;-88
2022/06/30 11:11:22;;;;;;;14.70;8.93;;;;;;;;;;5042613;28;20176;-88
2022/06/30 11:14:13;;;;;;;10.23;8.13;;;;;;;;;;5034340;28;20672;-88
2022/06/30 11:16:39;;;;;;;9.73;8.02;;;;;;;;;;5044943;28;20017;-89
2022/06/30 11:19:16;;;;;;;13.43;7.90;;;;;;;;;;5038602;28;20488;-88
2022/06/30 11:21:42;;;;;;;15.10;8.50;;;;;;;;;;5051953;28;20024;-88
2022/06/30 11:24:09;;;;;;;8.80;7.72;;;;;;;;;;5039746;28;20048;-88
2022/06/30 11:29:23;;;;;;;11.95;8.35;;;;;;;;;;5044310;28;20079;-89
2022/06/30 11:31:50;;;;;;;13.27;8.95;;;;;;;;;;4993421;28;20405;-89
2022/06/30 11:34:19;;;;;;;9.20;7.90;;;;;;;;;;4997556;28;20036;-88
2022/06/30 11:36:45;;;;;;;12.73;8.02;;;;;;;;;;5014520;28;20701;-88
2022/06/30 11:39:17;;;;;;;13.45;8.10;;;;;;;;;;4999220;28;20068;-88
2022/06/30 11:41:56;;;;;;;9.23;8.00;;;;;;;;;;4996891;28;20537;-89
2022/06/30 11:44:29;;;;;;;12.65;8.02;;;;;;;;;;4993649;28;20076;-87
2022/06/30 11:47:03;;;;;;;20.25;8.07;;;;;;;;;;4999432;28;20570;-87
2022/06/30 11:49:39;;;;;;;26.83;12.20;;;;;;;;;;5000553;28;20053;-89
2022/06/30 11:52:15;;;;;;;39.78;16.73;;;;;;;;;;5000203;28;20620;-89
2022/06/30 11:55:01;;;;;;;83.32;20.42;;;;;;;;;;4998235;28;20639;-90
2022/06/30 11:57:28;;;;;;;70.00;22.08;;;;;;;;;;4987390;28;20056;-90
2022/06/30 11:59:57;;;;;;;26.80;11.45;;;;;;;;;;5001089;28;20120;-90
2022/06/30 12:02:23;;;;;;;24.73;12.88;;;;;;;;;;4999360;28;20050;-91
2022/06/30 12:04:53;;;;;;;17.95;12.38;;;;;;;;;;4997771;28;20032;-90
2022/06/30 12:07:19;;;;;;;22.20;15.55;;;;;;;;;;4998236;28;20029;-89
2022/06/30 12:09:46;;;;;;;29.55;17.35;;;;;;;;;;4997742;28;20540;-88
2022/06/30 12:12:13;;;;;;;26.88;17.50;;;;;;;;;;4997844;28;20508;-88
2022/06/30 12:14:39;;;;;;;28.90;17.73;;;;;;;;;;4998472;28;20449;-88
2022/06/30 12:17:10;;;;;;;37.97;18.67;;;;;;;;;;4993410;28;20030;-87
2022/06/30 12:19:36;;;;;;;27.15;18.02;;;;;;;;;;4995392;28;20524;-88
2022/06/30 12:22:04;;;;;;;32.13;17.50;;;;;;;;;;4992237;28;20094;-88
2022/06/30 12:24:30;;;;;;;62.65;21.08;;;;;;;;;;4996961;28;20441;-89
2022/06/30 12:26:58;;;;;;;37.65;18.90;;;;;;;;;;4997266;28;20489;-88
2022/06/30 12:29:25;;;;;;;35.85;19.88;;;;;;;;;;5001864;28;20484;-90
2022/06/30 12:32:02;;;;;;;29.25;18.77;;;;;;;;;;5018898;28;20056;-89
2022/06/30 12:34:29;;;;;;;27.63;19.33;;;;;;;;;;5035896;28;20045;-89
2022/06/30 12:37:02;;;;;;;31.55;19.80;;;;;;;;;;5016857;28;20504;-90
2022/06/30 12:39:28;;;;;;;30.70;19.48;;;;;;;;;;5020461;28;20143;-90
2022/06/30 12:42:02;;;;;;;33.60;18.85;;;;;;;;;;5011950;28;20106;-91
2022/06/30 12:44:38;;;;;;;26.65;17.50;;;;;;;;;;5020753;28;20249;-88
2022/06/30 12:47:08;;;;;;;27.33;18.63;;;;;;;;;;5036363;28;20025;-87
2022/06/30 12:49:35;;;;;;;24.58;17.67;;;;;;;;;;5031734;28;20021;-89
2022/06/30 12:52:01;;;;;;;20.98;15.18;;;;;;;;;;5015288;28;20055;-87
2022/06/30 12:54:28;;;;;;;17.48;12.93;;;;;;;;;;5016543;28;20096;-90
2022/06/30 12:57:02;;;;;;;18.10;15.27;;;;;;;;;;5016916;28;20155;-87
2022/06/30 12:59:28;;;;;;;17.60;14.25;;;;;;;;;;5017690;28;20033;-88
2022/06/30 13:01:55;;;;;;;18.85;15.02;;;;;;;;;;5057693;28;20828;-88
2022/06/30 13:04:32;;;;;;;18.42;14.10;;;;;;;;;;5036440;28;20044;-87
2022/06/30 13:06:59;;;;;;;19.20;13.45;;;;;;;;;;5033235;28;20036;-88
2022/06/30 13:09:32;;;;;;;16.70;12.68;;;;;;;;;;5042825;28;20032;-88
2022/06/30 13:12:00;;;;;;;14.88;11.43;;;;;;;;;;5054640;28;20506;-86
2022/06/30 13:14:28;;;;;;;13.05;11.38;;;;;;;;;;5032550;28;20017;-87
2022/06/30 13:16:54;;;;;;;18.00;12.43;;;;;;;;;;5051605;28;20029;-87
2022/06/30 13:19:20;;;;;;;15.35;12.70;;;;;;;;;;5035559;28;20028;-87
2022/06/30 13:21:49;;;;;;;20.13;13.45;;;;;;;;;;5033835;28;20025;-88
2022/06/30 13:24:16;;;;;;;19.08;14.10;;;;;;;;;;5031875;28;20021;-87
2022/06/30 13:26:42;;;;;;;23.55;14.55;;;;;;;;;;5035696;28;20029;-87
2022/06/30 13:29:08;;;;;;;19.55;15.45;;;;;;;;;;5037165;28;20029;-87
2022/06/30 13:31:36;;;;;;;18.63;14.65;;;;;;;;;;4991894;28;20080;-87
2022/06/30 13:34:06;;;;;;;20.25;15.00;;;;;;;;;;4992842;28;20524;-86
2022/06/30 13:36:32;;;;;;;19.42;15.15;;;;;;;;;;4994979;28;20425;-87
2022/06/30 13:38:58;;;;;;;21.88;16.42;;;;;;;;;;4991898;28;20096;-87
2022/06/30 13:41:24;;;;;;;19.90;16.67;;;;;;;;;;4994998;28;20050;-90
2022/06/30 13:43:50;;;;;;;27.08;18.98;;;;;;;;;;5010908;28;20033;-88
2022/06/30 13:46:16;;;;;;;27.88;18.42;;;;;;;;;;4992226;28;20056;-89
2022/06/30 13:48:43;;;;;;;22.98;17.65;;;;;;;;;;4995848;28;20083;-88
2022/06/30 13:51:09;;;;;;;27.10;18.95;;;;;;;;;;4995128;28;20103;-87
2022/06/30 13:53:35;;;;;;;20.88;17.25;;;;;;;;;;5016484;28;20389;-88
2022/06/30 13:56:01;;;;;;;21.75;16.73;;;;;;;;;;4996700;28;20014;-87
2022/06/30 13:58:27;;;;;;;26.25;19.80;;;;;;;;;;4997819;28;20034;-88
2022/06/30 14:00:53;;;;;;;27.67;19.98;;;;;;;;;;4997004;28;20386;-88
2022/06/30 14:03:19;;;;;;;28.55;20.02;;;;;;;;;;4995850;28;20084;-88
2022/06/30 14:05:46;;;;;;;27.35;19.75;;;;;;;;;;4994077;28;20545;-88
2022/06/30 14:08:12;;;;;;;24.52;18.08;;;;;;;;;;4996372;28;20030;-88
2022/06/30 14:10:39;;;;;;;27.70;18.63;;;;;;;;;;4997700;28;20029;-88
2022/06/30 14:13:11;;;;;;;25.15;17.40;;;;;;;;;;5002793;28;20382;-87
2022/06/30 14:15:37;;;;;;;24.92;17.00;;;;;;;;;;5000722;28;20030;-88
2022/06/30 14:18:03;;;;;;;23.05;17.20;;;;;;;;;;4993379;28;20101;-88
2022/06/30 14:20:30;;;;;;;22.05;14.77;;;;;;;;;;4996724;28;20034;-88
2022/06/30 14:22:56;;;;;;;19.50;14.65;;;;;;;;;;4995318;28;20084;-88
2022/06/30 14:25:22;;;;;;;24.83;16.98;;;;;;;;;;4994721;28;20030;-87
2022/06/30 14:27:48;;;;;;;20.75;15.23;;;;;;;;;;5012095;28;20729;-88
2022/06/30 14:30:34;;;;;;;21.98;14.13;;;;;;;;;;5008580;28;20111;-87
2022/06/30 14:33:02;;;;;;;24.00;14.65;;;;;;;;;;5040431;28;20041;-88
2022/06/30 14:35:28;;;;;;;22.42;13.98;;;;;;;;;;5034478;28;20024;-88
2022/06/30 14:37:54;;;;;;;23.83;15.70;;;;;;;;;;5035432;28;20039;-88
2022/06/30 14:40:20;;;;;;;19.27;15.40;;;;;;;;;;5035893;28;20033;-87
2022/06/30 14:42:47;;;;;;;20.15;16.58;;;;;;;;;;5032366;28;20028;-87
2022/06/30 14:45:24;;;;;;;20.25;16.10;;;;;;;;;;5036140;28;20039;-88
2022/06/30 14:47:51;;;;;;;23.55;16.73;;;;;;;;;;5054296;28;20040;-87
2022/06/30 14:50:17;;;;;;;18.98;14.80;;;;;;;;;;5049698;28;20021;-87
2022/06/30 14:52:44;;;;;;;20.40;15.32;;;;;;;;;;5035213;28;20037;-87
2022/06/30 14:55:12;;;;;;;25.42;16.25;;;;;;;;;;5036793;28;20047;-88
2022/06/30 14:57:40;;;;;;;20.23;15.20;;;;;;;;;;5033438;28;20574;-87